createdAt,value
2023-05-05T00:00:58.703Z,1018.88
2023-05-05T00:01:59.084Z,1018.87
2023-05-05T00:02:59.603Z,1018.86
2023-05-05T00:03:59.786Z,1018.89
2023-05-05T00:05:00.182Z,1018.91
2023-05-05T00:06:00.531Z,1018.86
2023-05-05T00:07:00.862Z,1018.85
2023-05-05T00:08:01.228Z,1018.80
2023-05-05T00:09:01.594Z,1018.87
2023-05-05T00:10:01.968Z,1018.74
2023-05-05T00:11:02.363Z,1018.82
2023-05-05T00:12:02.683Z,1018.82
2023-05-05T00:13:03.078Z,1018.82
2023-05-05T00:14:03.430Z,1018.77
2023-05-05T00:15:03.799Z,1018.79
2023-05-05T00:16:04.193Z,1018.83
2023-05-05T00:17:04.597Z,1018.76
2023-05-05T00:18:04.983Z,1018.77
2023-05-05T00:19:05.276Z,1018.81
2023-05-05T00:20:05.922Z,1018.78
2023-05-05T00:21:06.020Z,1018.75
2023-05-05T00:22:06.360Z,1018.76
2023-05-05T00:23:06.712Z,1018.71
2023-05-05T00:24:07.073Z,1018.70
2023-05-05T00:25:07.444Z,1018.66
2023-05-05T00:26:07.839Z,1018.68
2023-05-05T00:27:08.203Z,1018.65
2023-05-05T00:28:08.537Z,1018.67
2023-05-05T00:29:08.912Z,1018.72
2023-05-05T00:30:09.596Z,1018.65
2023-05-05T00:31:09.757Z,1018.68
2023-05-05T00:32:10.007Z,1018.74
2023-05-05T00:33:10.357Z,1018.64
2023-05-05T00:34:10.711Z,1018.63
2023-05-05T00:35:11.090Z,1018.70
2023-05-05T00:36:11.460Z,1018.62
2023-05-05T00:37:11.769Z,1018.59
2023-05-05T00:38:12.102Z,1018.67
2023-05-05T00:39:12.479Z,1018.62
2023-05-05T00:40:12.792Z,1018.64
2023-05-05T00:41:13.159Z,1018.63
2023-05-05T00:42:13.523Z,1018.64
2023-05-05T00:43:13.865Z,1018.58
2023-05-05T00:44:14.222Z,1018.56
2023-05-05T00:45:14.578Z,1018.62
2023-05-05T00:46:15.011Z,1018.56
2023-05-05T00:47:15.279Z,1018.55
2023-05-05T00:48:15.647Z,1018.57
2023-05-05T00:49:16.024Z,1018.50
2023-05-05T00:50:16.372Z,1018.54
2023-05-05T00:51:16.768Z,1018.50
2023-05-05T00:52:17.060Z,1018.53
2023-05-05T00:53:17.401Z,1018.54
2023-05-05T00:54:17.777Z,1018.49
2023-05-05T00:55:18.099Z,1018.50
2023-05-05T00:56:18.463Z,1018.51
2023-05-05T00:57:18.790Z,1018.55
2023-05-05T00:58:19.146Z,1018.53
2023-05-05T00:59:19.492Z,1018.55
2023-05-05T01:00:19.833Z,1018.57
2023-05-05T01:01:20.247Z,1018.52
2023-05-05T01:02:20.541Z,1018.51
2023-05-05T01:03:20.978Z,1018.52
2023-05-05T01:04:21.254Z,1018.48
2023-05-05T01:05:21.601Z,1018.54
2023-05-05T01:06:21.962Z,1018.49
2023-05-05T01:07:22.316Z,1018.46
2023-05-05T01:08:22.683Z,1018.51
2023-05-05T01:09:23.027Z,1018.48
2023-05-05T01:10:23.650Z,1018.45
2023-05-05T01:11:23.766Z,1018.46
2023-05-05T01:12:24.104Z,1018.48
2023-05-05T01:13:24.457Z,1018.43
2023-05-05T01:14:24.821Z,1018.46
2023-05-05T01:15:25.161Z,1018.40
2023-05-05T01:16:25.546Z,1018.42
2023-05-05T01:17:25.874Z,1018.41
2023-05-05T01:18:26.213Z,1018.42
2023-05-05T01:19:26.556Z,1018.37
2023-05-05T01:20:26.898Z,1018.41
2023-05-05T01:21:27.296Z,1018.41
2023-05-05T01:22:27.646Z,1018.39
2023-05-05T01:23:27.986Z,1018.40
2023-05-05T01:24:28.344Z,1018.38
2023-05-05T01:25:28.694Z,1018.39
2023-05-05T01:26:29.073Z,1018.40
2023-05-05T01:27:29.392Z,1018.30
2023-05-05T01:28:29.744Z,1018.34
2023-05-05T01:29:30.099Z,1018.28
2023-05-05T01:30:30.453Z,1018.28
2023-05-05T01:31:30.837Z,1018.24
2023-05-05T01:32:31.207Z,1018.20
2023-05-05T01:33:31.476Z,1018.23
2023-05-05T01:34:31.830Z,1018.24
2023-05-05T01:35:32.184Z,1018.25
2023-05-05T01:36:32.560Z,1018.21
2023-05-05T01:37:32.974Z,1018.21
2023-05-05T01:38:33.243Z,1018.21
2023-05-05T01:39:33.595Z,1018.23
2023-05-05T01:40:33.961Z,1018.24
2023-05-05T01:41:34.326Z,1018.22
2023-05-05T01:42:34.667Z,1018.19
2023-05-05T01:43:35.040Z,1018.19
2023-05-05T01:44:35.351Z,1018.20
2023-05-05T01:45:35.770Z,1018.19
2023-05-05T01:46:36.075Z,1018.15
2023-05-05T01:47:36.452Z,1018.18
2023-05-05T01:48:36.776Z,1018.14
2023-05-05T01:49:37.131Z,1018.14
2023-05-05T01:50:37.480Z,1018.16
2023-05-05T01:51:37.881Z,1018.16
2023-05-05T01:52:38.170Z,1018.15
2023-05-05T01:53:38.556Z,1018.16
2023-05-05T01:54:38.867Z,1018.11
2023-05-05T01:55:39.218Z,1018.17
2023-05-05T01:56:39.582Z,1018.10
2023-05-05T01:57:39.933Z,1018.12
2023-05-05T01:58:40.287Z,1018.09
2023-05-05T01:59:40.636Z,1018.11
2023-05-05T02:00:41.014Z,1018.15
2023-05-05T02:01:41.404Z,1018.08
2023-05-05T02:02:41.756Z,1018.04
2023-05-05T02:03:42.060Z,1018.13
2023-05-05T02:04:42.414Z,1018.05
2023-05-05T02:05:42.759Z,1018.03
2023-05-05T02:06:43.140Z,1018.11
2023-05-05T02:07:43.466Z,1018.00
2023-05-05T02:08:43.817Z,1018.05
2023-05-05T02:09:44.169Z,1018.03
2023-05-05T02:10:44.504Z,1018.02
2023-05-05T02:11:44.875Z,1018.03
2023-05-05T02:12:45.253Z,1018.02
2023-05-05T02:13:45.637Z,1017.96
2023-05-05T02:14:45.963Z,1018.00
2023-05-05T02:15:46.351Z,1017.99
2023-05-05T02:16:46.673Z,1017.97
2023-05-05T02:17:47.054Z,1017.95
2023-05-05T02:18:47.399Z,1018.05
2023-05-05T02:19:47.719Z,1018.00
2023-05-05T02:20:48.081Z,1018.01
2023-05-05T02:21:48.446Z,1018.06
2023-05-05T02:22:48.808Z,1018.01
2023-05-05T02:23:49.141Z,1017.99
2023-05-05T02:24:49.503Z,1017.98
2023-05-05T02:25:49.835Z,1017.97
2023-05-05T02:26:50.217Z,1017.95
2023-05-05T02:27:50.650Z,1017.99
2023-05-05T02:28:50.867Z,1017.96
2023-05-05T02:29:51.224Z,1017.96
2023-05-05T02:30:51.577Z,1017.96
2023-05-05T02:31:51.969Z,1017.98
2023-05-05T02:32:52.312Z,1017.96
2023-05-05T02:33:52.617Z,1017.98
2023-05-05T02:34:52.962Z,1017.98
2023-05-05T02:35:53.314Z,1017.94
2023-05-05T02:36:53.684Z,1017.93
2023-05-05T02:37:54.018Z,1017.91
2023-05-05T02:38:54.370Z,1017.96
2023-05-05T02:39:54.717Z,1017.94
2023-05-05T02:40:55.053Z,1017.91
2023-05-05T02:41:55.411Z,1017.91
2023-05-05T02:42:55.774Z,1017.90
2023-05-05T02:43:56.118Z,1017.94
2023-05-05T02:44:56.462Z,1017.85
2023-05-05T02:45:56.821Z,1017.92
2023-05-05T02:46:57.182Z,1017.90
2023-05-05T02:47:57.570Z,1017.90
2023-05-05T02:48:57.900Z,1017.91
2023-05-05T02:49:58.250Z,1017.90
2023-05-05T02:50:58.597Z,1017.89
2023-05-05T02:51:58.958Z,1017.82
2023-05-05T02:52:59.295Z,1017.80
2023-05-05T02:53:59.684Z,1017.84
2023-05-05T02:55:00.039Z,1017.81
2023-05-05T02:56:00.428Z,1017.78
2023-05-05T02:57:00.774Z,1017.79
2023-05-05T02:58:00.972Z,1017.75
2023-05-05T02:59:01.291Z,1017.74
2023-05-05T03:00:01.564Z,1017.77
2023-05-05T03:01:01.856Z,1017.76
2023-05-05T03:02:02.148Z,1017.79
2023-05-05T03:03:02.490Z,1017.77
2023-05-05T03:04:02.691Z,1017.77
2023-05-05T03:05:02.951Z,1017.75
2023-05-05T03:06:03.247Z,1017.71
2023-05-05T03:07:03.552Z,1017.69
2023-05-05T03:08:03.816Z,1017.69
2023-05-05T03:09:04.092Z,1017.72
2023-05-05T03:10:04.385Z,1017.67
2023-05-05T03:11:04.677Z,1017.71
2023-05-05T03:12:04.989Z,1017.71
2023-05-05T03:13:05.364Z,1017.72
2023-05-05T03:14:05.539Z,1017.70
2023-05-05T03:15:05.824Z,1017.73
2023-05-05T03:16:05.998Z,1017.71
2023-05-05T03:17:06.297Z,1017.72
2023-05-05T03:18:06.621Z,1017.71
2023-05-05T03:19:06.894Z,1017.68
2023-05-05T03:20:07.341Z,1017.62
2023-05-05T03:21:07.435Z,1017.68
2023-05-05T03:22:07.716Z,1017.65
2023-05-05T03:23:08.011Z,1017.59
2023-05-05T03:24:08.282Z,1017.61
2023-05-05T03:25:08.582Z,1017.61
2023-05-05T03:26:08.715Z,1017.64
2023-05-05T03:27:09.052Z,1017.60
2023-05-05T03:28:09.299Z,1017.58
2023-05-05T03:29:09.572Z,1017.63
2023-05-05T03:30:09.938Z,1017.58
2023-05-05T03:31:10.010Z,1017.63
2023-05-05T03:32:10.283Z,1017.64
2023-05-05T03:33:10.539Z,1017.62
2023-05-05T03:34:10.775Z,1017.56
2023-05-05T03:35:11.058Z,1017.54
2023-05-05T03:36:11.364Z,1017.53
2023-05-05T03:37:11.687Z,1017.56
2023-05-05T03:38:11.847Z,1017.56
2023-05-05T03:39:12.010Z,1017.54
2023-05-05T03:40:12.203Z,1017.47
2023-05-05T03:41:12.483Z,1017.47
2023-05-05T03:42:12.683Z,1017.43
2023-05-05T03:43:12.944Z,1017.42
2023-05-05T03:44:13.148Z,1017.42
2023-05-05T03:45:13.293Z,1017.56
2023-05-05T03:46:13.533Z,1017.45
2023-05-05T03:47:13.675Z,1017.52
2023-05-05T03:48:13.832Z,1017.55
2023-05-05T03:49:14.006Z,1017.48
2023-05-05T03:50:14.184Z,1017.47
2023-05-05T03:51:14.352Z,1017.54
2023-05-05T03:52:15.129Z,1017.48
2023-05-05T03:53:14.702Z,1017.54
2023-05-05T03:54:14.874Z,1017.50
2023-05-05T03:55:15.064Z,1017.45
2023-05-05T03:56:15.225Z,1017.49
2023-05-05T03:57:15.412Z,1017.46
2023-05-05T03:58:15.586Z,1017.43
2023-05-05T03:59:15.811Z,1017.46
2023-05-05T04:00:15.953Z,1017.46
2023-05-05T04:01:16.152Z,1017.46
2023-05-05T04:02:18.634Z,1017.48
2023-05-05T04:03:16.642Z,1017.56
2023-05-05T04:04:16.674Z,1017.47
2023-05-05T04:05:16.811Z,1017.52
2023-05-05T04:06:16.979Z,1017.52
2023-05-05T04:07:17.184Z,1017.49
2023-05-05T04:08:17.313Z,1017.42
2023-05-05T04:09:17.497Z,1017.38
2023-05-05T04:10:17.674Z,1017.42
2023-05-05T04:11:17.843Z,1017.30
2023-05-05T04:12:18.051Z,1017.36
2023-05-05T04:13:18.243Z,1017.37
2023-05-05T04:14:18.393Z,1017.36
2023-05-05T04:15:18.526Z,1017.36
2023-05-05T04:16:18.770Z,1017.35
2023-05-05T04:17:18.895Z,1017.39
2023-05-05T04:18:19.174Z,1017.32
2023-05-05T04:19:19.355Z,1017.41
2023-05-05T04:20:19.549Z,1017.38
2023-05-05T04:21:19.719Z,1017.39
2023-05-05T04:22:20.030Z,1017.39
2023-05-05T04:23:20.316Z,1017.42
2023-05-05T04:24:20.616Z,1017.35
2023-05-05T04:25:20.775Z,1017.37
2023-05-05T04:26:20.973Z,1017.40
2023-05-05T04:27:21.287Z,1017.39
2023-05-05T04:28:22.200Z,1017.33
2023-05-05T04:29:21.612Z,1017.33
2023-05-05T04:30:21.791Z,1017.36
2023-05-05T04:31:22.174Z,1017.28
2023-05-05T04:32:22.457Z,1017.34
2023-05-05T04:33:22.707Z,1017.35
2023-05-05T04:34:22.984Z,1017.40
2023-05-05T04:35:23.171Z,1017.45
2023-05-05T04:36:23.477Z,1017.51
2023-05-05T04:37:23.801Z,1017.48
2023-05-05T04:38:23.993Z,1017.52
2023-05-05T04:39:24.275Z,1017.51
2023-05-05T04:40:24.577Z,1017.57
2023-05-05T04:41:24.755Z,1017.56
2023-05-05T04:42:24.955Z,1017.61
2023-05-05T04:43:25.262Z,1017.57
2023-05-05T04:44:25.403Z,1017.62
2023-05-05T04:45:25.708Z,1017.56
2023-05-05T04:46:25.917Z,1017.64
2023-05-05T04:47:26.062Z,1017.62
2023-05-05T04:48:26.342Z,1017.61
2023-05-05T04:49:26.529Z,1017.74
2023-05-05T04:50:26.697Z,1017.68
2023-05-05T04:51:26.992Z,1017.75
2023-05-05T04:52:27.401Z,1017.79
2023-05-05T04:53:27.366Z,1017.74
2023-05-05T04:54:27.666Z,1017.74
2023-05-05T04:55:27.831Z,1017.70
2023-05-05T04:56:28.012Z,1017.66
2023-05-05T04:57:28.193Z,1017.64
2023-05-05T04:58:28.380Z,1017.57
2023-05-05T04:59:28.549Z,1017.58
2023-05-05T05:00:28.731Z,1017.58
2023-05-05T05:01:28.966Z,1017.58
2023-05-05T05:02:29.244Z,1017.54
2023-05-05T05:03:29.356Z,1017.57
2023-05-05T05:04:29.477Z,1017.57
2023-05-05T05:05:29.662Z,1017.58
2023-05-05T05:06:29.846Z,1017.56
2023-05-05T05:07:30.050Z,1017.52
2023-05-05T05:08:30.232Z,1017.52
2023-05-05T05:09:30.402Z,1017.51
2023-05-05T05:10:30.701Z,1017.56
2023-05-05T05:11:30.867Z,1017.55
2023-05-05T05:12:31.120Z,1017.55
2023-05-05T05:13:31.244Z,1017.58
2023-05-05T05:14:31.452Z,1017.59
2023-05-05T05:15:31.624Z,1017.54
2023-05-05T05:16:31.966Z,1017.61
2023-05-05T05:17:32.116Z,1017.60
2023-05-05T05:18:32.275Z,1017.59
2023-05-05T05:19:32.459Z,1017.62
2023-05-05T05:20:32.638Z,1017.60
2023-05-05T05:21:33.072Z,1017.61
2023-05-05T05:22:33.122Z,1017.62
2023-05-05T05:23:33.286Z,1017.62
2023-05-05T05:24:33.471Z,1017.65
2023-05-05T05:25:33.651Z,1017.63
2023-05-05T05:26:33.840Z,1017.64
2023-05-05T05:27:34.102Z,1017.62
2023-05-05T05:28:34.238Z,1017.65
2023-05-05T05:29:34.422Z,1017.62
2023-05-05T05:30:34.733Z,1017.61
2023-05-05T05:31:34.842Z,1017.62
2023-05-05T05:32:35.011Z,1017.59
2023-05-05T05:33:35.182Z,1017.64
2023-05-05T05:34:35.374Z,1017.58
2023-05-05T05:35:35.573Z,1017.55
2023-05-05T05:36:35.785Z,1017.54
2023-05-05T05:37:35.950Z,1017.44
2023-05-05T05:38:36.169Z,1017.45
2023-05-05T05:39:36.313Z,1017.44
2023-05-05T05:40:36.521Z,1017.36
2023-05-05T05:41:36.720Z,1017.37
2023-05-05T05:42:36.889Z,1017.32
2023-05-05T05:43:37.049Z,1017.39
2023-05-05T05:44:37.223Z,1017.35
2023-05-05T05:45:37.590Z,1017.29
2023-05-05T05:46:37.706Z,1017.34
2023-05-05T05:47:37.830Z,1017.36
2023-05-05T05:48:37.986Z,1017.31
2023-05-05T05:49:38.139Z,1017.32
2023-05-05T05:50:38.327Z,1017.32
2023-05-05T05:51:38.550Z,1017.36
2023-05-05T05:52:38.726Z,1017.38
2023-05-05T05:53:38.898Z,1017.32
2023-05-05T05:54:39.072Z,1017.32
2023-05-05T05:55:39.260Z,1017.31
2023-05-05T05:56:39.440Z,1017.25
2023-05-05T05:57:39.650Z,1017.24
2023-05-05T05:58:39.829Z,1017.26
2023-05-05T05:59:39.985Z,1017.23
2023-05-05T06:00:40.175Z,1017.21
2023-05-05T06:01:40.464Z,1017.23
2023-05-05T06:02:40.674Z,1017.11
2023-05-05T06:03:40.909Z,1017.18
2023-05-05T06:04:41.022Z,1017.14
2023-05-05T06:05:41.100Z,1017.15
2023-05-05T06:06:41.299Z,1017.18
2023-05-05T06:07:41.515Z,1017.11
2023-05-05T06:08:41.673Z,1017.08
2023-05-05T06:09:41.887Z,1017.12
2023-05-05T06:10:42.064Z,1017.05
2023-05-05T06:11:42.240Z,1017.12
2023-05-05T06:12:42.499Z,1017.09
2023-05-05T06:13:42.618Z,1017.07
2023-05-05T06:14:42.811Z,1017.02
2023-05-05T06:15:43.033Z,1016.99
2023-05-05T06:16:43.168Z,1016.96
2023-05-05T06:17:43.612Z,1016.97
2023-05-05T06:18:43.534Z,1016.91
2023-05-05T06:19:43.731Z,1016.97
2023-05-05T06:20:43.879Z,1016.93
2023-05-05T06:21:44.074Z,1016.91
2023-05-05T06:22:44.266Z,1016.93
2023-05-05T06:23:44.427Z,1016.96
2023-05-05T06:24:44.614Z,1016.95
2023-05-05T06:25:44.797Z,1017.00
2023-05-05T06:26:44.987Z,1017.00
2023-05-05T06:27:45.165Z,1016.90
2023-05-05T06:28:45.317Z,1017.03
2023-05-05T06:29:45.510Z,1016.96
2023-05-05T06:30:45.715Z,1017.00
2023-05-05T06:31:45.947Z,1017.02
2023-05-05T06:32:46.164Z,1017.09
2023-05-05T06:33:46.305Z,1017.13
2023-05-05T06:34:46.489Z,1017.14
2023-05-05T06:35:46.680Z,1017.17
2023-05-05T06:36:46.916Z,1017.19
2023-05-05T06:37:47.070Z,1017.22
2023-05-05T06:38:47.257Z,1017.21
2023-05-05T06:39:47.453Z,1017.26
2023-05-05T06:40:47.645Z,1017.33
2023-05-05T06:41:47.823Z,1017.32
2023-05-05T06:42:48.053Z,1017.26
2023-05-05T06:43:48.200Z,1017.26
2023-05-05T06:44:48.400Z,1017.37
2023-05-05T06:45:48.593Z,1017.45
2023-05-05T06:46:48.810Z,1017.46
2023-05-05T06:47:48.992Z,1017.51
2023-05-05T06:48:49.131Z,1017.49
2023-05-05T06:49:49.333Z,1017.56
2023-05-05T06:50:49.535Z,1017.51
2023-05-05T06:51:49.721Z,1017.47
2023-05-05T06:52:49.926Z,1017.43
2023-05-05T06:53:50.082Z,1017.40
2023-05-05T06:54:50.269Z,1017.33
2023-05-05T06:55:50.464Z,1017.33
2023-05-05T06:56:50.665Z,1017.29
2023-05-05T06:57:50.871Z,1017.33
2023-05-05T06:58:51.024Z,1017.41
2023-05-05T06:59:51.220Z,1017.39
2023-05-05T07:00:51.422Z,1017.43
2023-05-05T07:01:51.603Z,1017.45
2023-05-05T07:02:51.902Z,1017.52
2023-05-05T07:03:52.030Z,1017.57
2023-05-05T07:04:52.165Z,1017.55
2023-05-05T07:05:52.345Z,1017.61
2023-05-05T07:06:52.540Z,1017.65
2023-05-05T07:07:52.757Z,1017.67
2023-05-05T07:08:52.902Z,1017.66
2023-05-05T07:09:53.100Z,1017.64
2023-05-05T07:10:53.296Z,1017.61
2023-05-05T07:11:53.475Z,1017.61
2023-05-05T07:12:53.759Z,1017.64
2023-05-05T07:13:53.847Z,1017.68
2023-05-05T07:14:54.023Z,1017.68
2023-05-05T07:15:54.255Z,1017.76
2023-05-05T07:16:54.499Z,1017.76
2023-05-05T07:17:54.626Z,1017.77
2023-05-05T07:18:54.790Z,1017.80
2023-05-05T07:19:54.991Z,1017.84
2023-05-05T07:20:55.175Z,1017.83
2023-05-05T07:21:55.370Z,1017.88
2023-05-05T07:22:55.574Z,1017.87
2023-05-05T07:23:55.752Z,1017.86
2023-05-05T07:24:55.939Z,1017.91
2023-05-05T07:25:56.105Z,1017.80
2023-05-05T07:26:56.291Z,1017.82
2023-05-05T07:27:56.524Z,1017.80
2023-05-05T07:28:56.648Z,1017.79
2023-05-05T07:29:56.823Z,1017.87
2023-05-05T07:30:57.010Z,1017.85
2023-05-05T07:31:57.236Z,1017.84
2023-05-05T07:32:57.420Z,1017.84
2023-05-05T07:33:57.533Z,1017.79
2023-05-05T07:34:57.702Z,1017.81
2023-05-05T07:35:57.892Z,1017.83
2023-05-05T07:36:58.089Z,1017.82
2023-05-05T07:37:58.290Z,1017.88
2023-05-05T07:38:58.450Z,1017.86
2023-05-05T07:39:58.641Z,1017.93
2023-05-05T07:40:58.853Z,1017.86
2023-05-05T07:41:59.032Z,1017.88
2023-05-05T07:42:59.236Z,1017.92
2023-05-05T07:43:59.401Z,1017.98
2023-05-05T07:44:59.581Z,1017.95
2023-05-05T07:45:59.791Z,1018.00
2023-05-05T07:46:59.948Z,1018.05
2023-05-05T07:48:00.238Z,1018.09
2023-05-05T07:49:00.346Z,1018.06
2023-05-05T07:50:00.561Z,1018.03
2023-05-05T07:51:00.748Z,1018.05
2023-05-05T07:52:00.920Z,1018.04
2023-05-05T07:53:10.940Z,1018.08
2023-05-05T07:54:01.325Z,1018.08
2023-05-05T07:55:01.476Z,1018.10
2023-05-05T07:56:01.695Z,1018.10
2023-05-05T07:57:01.850Z,1018.13
2023-05-05T07:58:02.083Z,1018.08
2023-05-05T07:59:02.246Z,1018.09
2023-05-05T08:00:02.443Z,1018.10
2023-05-05T08:01:02.640Z,1018.08
2023-05-05T08:02:02.832Z,1018.14
2023-05-05T08:03:03.111Z,1018.03
2023-05-05T08:04:03.281Z,1018.15
2023-05-05T08:05:03.408Z,1018.10
2023-05-05T08:06:03.592Z,1018.05
2023-05-05T08:07:03.788Z,1018.06
2023-05-05T08:08:03.987Z,1018.09
2023-05-05T08:09:04.140Z,1018.10
2023-05-05T08:10:04.351Z,1018.10
2023-05-05T08:11:04.527Z,1018.08
2023-05-05T08:12:04.890Z,1017.99
2023-05-05T08:13:04.975Z,1017.96
2023-05-05T08:14:05.115Z,1017.97
2023-05-05T08:15:05.442Z,1017.97
2023-05-05T08:16:05.530Z,1017.92
2023-05-05T08:17:05.680Z,1017.92
2023-05-05T08:18:05.939Z,1017.90
2023-05-05T08:19:12.055Z,1017.88
2023-05-05T08:20:06.271Z,1017.90
2023-05-05T08:21:06.431Z,1017.85
2023-05-05T08:22:06.642Z,1017.79
2023-05-05T08:23:06.854Z,1017.74
2023-05-05T08:24:07.024Z,1017.66
2023-05-05T08:25:07.381Z,1017.72
2023-05-05T08:26:07.382Z,1017.72
2023-05-05T08:27:07.577Z,1017.70
2023-05-05T08:28:07.765Z,1017.68
2023-05-05T08:29:07.956Z,1017.77
2023-05-05T08:30:08.162Z,1017.65
2023-05-05T08:31:08.434Z,1017.69
2023-05-05T08:32:08.547Z,1017.77
2023-05-05T08:33:08.788Z,1017.71
2023-05-05T08:34:08.940Z,1017.70
2023-05-05T08:35:09.377Z,1017.67
2023-05-05T08:36:09.312Z,1017.74
2023-05-05T08:37:09.461Z,1017.65
2023-05-05T08:38:09.652Z,1017.65
2023-05-05T08:39:09.816Z,1017.67
2023-05-05T08:40:10.029Z,1017.63
2023-05-05T08:41:10.201Z,1017.63
2023-05-05T08:42:10.383Z,1017.55
2023-05-05T08:43:10.568Z,1017.54
2023-05-05T08:44:10.753Z,1017.53
2023-05-05T08:45:11.778Z,1017.58
2023-05-05T08:46:11.136Z,1017.55
2023-05-05T08:47:11.380Z,1017.56
2023-05-05T08:48:11.568Z,1017.56
2023-05-05T08:49:11.711Z,1017.52
2023-05-05T08:50:11.916Z,1017.48
2023-05-05T08:51:12.098Z,1017.53
2023-05-05T08:52:12.333Z,1017.54
2023-05-05T08:53:12.515Z,1017.53
2023-05-05T08:54:12.698Z,1017.48
2023-05-05T08:55:12.906Z,1017.45
2023-05-05T08:56:13.101Z,1017.38
2023-05-05T08:57:13.286Z,1017.43
2023-05-05T08:58:13.506Z,1017.44
2023-05-05T08:59:13.701Z,1017.40
2023-05-05T09:00:13.897Z,1017.38
2023-05-05T09:01:14.149Z,1017.37
2023-05-05T09:02:14.339Z,1017.31
2023-05-05T09:03:14.723Z,1017.35
2023-05-05T09:04:14.704Z,1017.35
2023-05-05T09:05:14.887Z,1017.40
2023-05-05T09:06:15.110Z,1017.42
2023-05-05T09:07:15.302Z,1017.41
2023-05-05T09:08:15.483Z,1017.43
2023-05-05T09:09:15.674Z,1017.46
2023-05-05T09:10:15.920Z,1017.45
2023-05-05T09:11:16.083Z,1017.54
2023-05-05T09:12:16.250Z,1017.47
2023-05-05T09:13:16.515Z,1017.52
2023-05-05T09:14:16.663Z,1017.58
2023-05-05T09:15:16.844Z,1017.59
2023-05-05T09:16:17.035Z,1017.61
2023-05-05T09:17:17.198Z,1017.60
2023-05-05T09:18:17.384Z,1017.60
2023-05-05T09:19:17.558Z,1017.55
2023-05-05T09:20:17.754Z,1017.53
2023-05-05T09:21:17.963Z,1017.50
2023-05-05T09:22:18.170Z,1017.50
2023-05-05T09:23:18.402Z,1017.59
2023-05-05T09:24:18.577Z,1017.57
2023-05-05T09:25:18.800Z,1017.50
2023-05-05T09:26:18.948Z,1017.50
2023-05-05T09:27:19.127Z,1017.48
2023-05-05T09:28:19.330Z,1017.53
2023-05-05T09:29:19.486Z,1017.50
2023-05-05T09:30:19.671Z,1017.49
2023-05-05T09:31:19.930Z,1017.45
2023-05-05T09:32:20.056Z,1017.48
2023-05-05T09:33:20.274Z,1017.47
2023-05-05T09:34:20.427Z,1017.48
2023-05-05T09:35:20.623Z,1017.44
2023-05-05T09:36:20.825Z,1017.43
2023-05-05T09:37:21.024Z,1017.38
2023-05-05T09:38:21.237Z,1017.32
2023-05-05T09:39:21.404Z,1017.29
2023-05-05T09:40:21.670Z,1017.27
2023-05-05T09:41:21.786Z,1017.34
2023-05-05T09:42:21.984Z,1017.33
2023-05-05T09:43:22.213Z,1017.25
2023-05-05T09:44:22.382Z,1017.25
2023-05-05T09:45:22.542Z,1017.29
2023-05-05T09:46:22.870Z,1017.29
2023-05-05T09:47:29.467Z,1017.29
2023-05-05T09:48:23.202Z,1017.26
2023-05-05T09:49:23.372Z,1017.28
2023-05-05T09:50:23.547Z,1017.34
2023-05-05T09:51:23.735Z,1017.26
2023-05-05T09:52:23.911Z,1017.23
2023-05-05T09:53:24.132Z,1017.21
2023-05-05T09:54:24.307Z,1017.25
2023-05-05T09:55:24.513Z,1017.28
2023-05-05T09:56:24.717Z,1017.22
2023-05-05T09:57:24.925Z,1017.20
2023-05-05T09:58:25.255Z,1017.17
2023-05-05T09:59:26.357Z,1017.20
2023-05-05T10:00:25.578Z,1017.21
2023-05-05T10:01:25.813Z,1017.24
2023-05-05T10:02:26.046Z,1017.29
2023-05-05T10:03:26.238Z,1017.25
2023-05-05T10:04:26.385Z,1017.26
2023-05-05T10:05:26.659Z,1017.31
2023-05-05T10:06:26.779Z,1017.34
2023-05-05T10:07:27.032Z,1017.34
2023-05-05T10:08:27.225Z,1017.34
2023-05-05T10:09:27.638Z,1017.36
2023-05-05T10:10:29.015Z,1017.42
2023-05-05T10:11:27.824Z,1017.39
2023-05-05T10:12:28.018Z,1017.35
2023-05-05T10:13:28.208Z,1017.46
2023-05-05T10:14:28.360Z,1017.39
2023-05-05T10:15:28.601Z,1017.41
2023-05-05T10:16:29.165Z,1017.38
2023-05-05T10:17:29.044Z,1017.39
2023-05-05T10:18:29.210Z,1017.43
2023-05-05T10:19:29.373Z,1017.34
2023-05-05T10:20:29.567Z,1017.35
2023-05-05T10:21:29.761Z,1017.38
2023-05-05T10:22:29.955Z,1017.40
2023-05-05T10:23:30.170Z,1017.32
2023-05-05T10:24:30.388Z,1017.37
2023-05-05T10:25:30.523Z,1017.38
2023-05-05T10:26:30.717Z,1017.40
2023-05-05T10:27:30.963Z,1017.40
2023-05-05T10:28:31.117Z,1017.39
2023-05-05T10:29:31.310Z,1017.42
2023-05-05T10:30:31.521Z,1017.43
2023-05-05T10:31:31.750Z,1017.46
2023-05-05T10:33:32.560Z,1017.43
2023-05-05T10:34:32.298Z,1017.43
2023-05-05T10:35:32.491Z,1017.37
2023-05-05T10:36:32.654Z,1017.36
2023-05-05T10:37:32.851Z,1017.34
2023-05-05T10:38:33.017Z,1017.27
2023-05-05T10:39:33.229Z,1017.24
2023-05-05T10:40:33.413Z,1017.19
2023-05-05T10:41:33.599Z,1017.23
2023-05-05T10:42:33.799Z,1017.19
2023-05-05T10:43:33.953Z,1017.13
2023-05-05T10:44:34.156Z,1017.11
2023-05-05T10:45:34.394Z,1017.12
2023-05-05T10:46:34.677Z,1017.10
2023-05-05T10:47:34.701Z,1017.16
2023-05-05T10:48:34.948Z,1017.05
2023-05-05T10:49:35.071Z,1017.10
2023-05-05T10:50:35.285Z,1017.10
2023-05-05T10:51:40.562Z,1017.09
2023-05-05T10:52:35.682Z,1017.09
2023-05-05T10:53:35.840Z,1017.15
2023-05-05T10:54:37.794Z,1017.10
2023-05-05T10:55:36.236Z,1017.10
2023-05-05T10:56:36.419Z,1017.10
2023-05-05T10:57:36.582Z,1017.10
2023-05-05T10:58:51.335Z,1017.05
2023-05-05T10:59:36.994Z,1017.02
2023-05-05T11:00:37.190Z,1017.11
2023-05-05T11:01:37.470Z,1017.03
2023-05-05T11:02:37.598Z,1017.03
2023-05-05T11:03:37.776Z,1017.10
2023-05-05T11:04:37.938Z,1017.13
2023-05-05T11:05:38.172Z,1017.05
2023-05-05T11:06:38.335Z,1017.10
2023-05-05T11:07:38.485Z,1017.08
2023-05-05T11:08:38.657Z,1017.14
2023-05-05T11:09:38.834Z,1017.12
2023-05-05T11:10:39.038Z,1017.09
2023-05-05T11:11:39.199Z,1017.13
2023-05-05T11:12:39.401Z,1017.10
2023-05-05T11:13:39.550Z,1017.11
2023-05-05T11:14:39.766Z,1017.06
2023-05-05T11:15:39.981Z,1017.06
2023-05-05T11:16:40.152Z,1017.09
2023-05-05T11:17:40.327Z,1017.09
2023-05-05T11:18:40.470Z,1017.03
2023-05-05T11:19:40.687Z,1017.08
2023-05-05T11:20:40.918Z,1017.10
2023-05-05T11:21:41.072Z,1017.05
2023-05-05T11:22:41.241Z,1017.05
2023-05-05T11:23:41.447Z,1017.04
2023-05-05T11:24:41.629Z,1017.05
2023-05-05T11:25:41.864Z,1017.01
2023-05-05T11:26:42.030Z,1016.96
2023-05-05T11:27:42.235Z,1016.95
2023-05-05T11:28:42.421Z,1016.92
2023-05-05T11:29:42.623Z,1016.89
2023-05-05T11:30:42.848Z,1016.93
2023-05-05T11:31:42.963Z,1016.81
2023-05-05T11:32:43.171Z,1016.74
2023-05-05T11:33:43.357Z,1016.72
2023-05-05T11:34:43.558Z,1016.68
2023-05-05T11:35:43.775Z,1016.72
2023-05-05T11:36:43.913Z,1016.69
2023-05-05T11:37:44.112Z,1016.60
2023-05-05T11:38:44.316Z,1016.65
2023-05-05T11:39:44.498Z,1016.63
2023-05-05T11:40:44.715Z,1016.62
2023-05-05T11:41:44.895Z,1016.59
2023-05-05T11:42:45.064Z,1016.65
2023-05-05T11:43:45.274Z,1016.64
2023-05-05T11:44:45.435Z,1016.71
2023-05-05T11:45:45.645Z,1016.74
2023-05-05T11:46:45.856Z,1016.67
2023-05-05T11:47:46.720Z,1016.67
2023-05-05T11:48:46.174Z,1016.68
2023-05-05T11:49:46.410Z,1016.62
2023-05-05T11:50:46.580Z,1016.61
2023-05-05T11:51:46.757Z,1016.58
2023-05-05T11:52:46.987Z,1016.50
2023-05-05T11:53:47.153Z,1016.51
2023-05-05T11:54:47.350Z,1016.50
2023-05-05T11:55:47.568Z,1016.48
2023-05-05T11:56:47.753Z,1016.37
2023-05-05T11:57:47.932Z,1016.35
2023-05-05T11:58:48.115Z,1016.37
2023-05-05T11:59:49.517Z,1016.35
2023-05-05T12:00:48.504Z,1016.35
2023-05-05T12:01:48.672Z,1016.30
2023-05-05T12:02:48.953Z,1016.35
2023-05-05T12:03:49.296Z,1016.19
2023-05-05T12:04:49.334Z,1016.33
2023-05-05T12:05:49.492Z,1016.32
2023-05-05T12:06:49.637Z,1016.29
2023-05-05T12:07:49.852Z,1016.36
2023-05-05T12:08:50.023Z,1016.36
2023-05-05T12:09:50.231Z,1016.31